createdAt,value
2022-11-20T00:01:41.157Z,23.27
2022-11-20T00:04:12.545Z,25.27
2022-11-20T00:06:41.155Z,28.90
2022-11-20T00:09:12.182Z,22.00
2022-11-20T00:11:40.613Z,25.70
2022-11-20T00:14:09.049Z,21.67
2022-11-20T00:16:38.782Z,23.70
2022-11-20T00:19:07.253Z,27.33
2022-11-20T00:21:35.643Z,23.90
2022-11-20T00:24:04.056Z,27.17
2022-11-20T00:26:32.645Z,22.10
2022-11-20T00:29:02.857Z,20.43
2022-11-20T00:31:34.059Z,21.00
2022-11-20T00:34:04.106Z,21.83
2022-11-20T00:36:35.818Z,24.67
2022-11-20T00:39:04.524Z,25.37
2022-11-20T00:41:33.331Z,22.40
2022-11-20T00:44:01.893Z,23.00
2022-11-20T00:46:30.683Z,25.30
2022-11-20T00:48:59.880Z,26.10
2022-11-20T00:51:30.162Z,21.83
2022-11-20T00:54:01.028Z,27.13
2022-11-20T00:56:29.603Z,25.93
2022-11-20T00:59:01.066Z,23.70
2022-11-20T01:01:31.270Z,21.57
2022-11-20T01:04:02.095Z,25.93
2022-11-20T01:06:34.110Z,23.27
2022-11-20T01:09:06.285Z,21.47
2022-11-20T01:11:36.766Z,22.73
2022-11-20T01:14:07.674Z,23.27
2022-11-20T01:16:38.385Z,19.87
2022-11-20T01:19:09.685Z,29.93
2022-11-20T01:21:43.496Z,22.97
2022-11-20T01:24:17.604Z,25.63
2022-11-20T01:26:48.542Z,22.03
2022-11-20T01:29:20.051Z,25.20
2022-11-20T01:31:48.831Z,25.90
2022-11-20T01:34:20.343Z,28.03
2022-11-20T01:36:50.455Z,25.50
2022-11-20T01:39:21.936Z,27.80
2022-11-20T01:42:10.585Z,25.13
2022-11-20T01:44:56.525Z,26.47
2022-11-20T01:47:32.972Z,27.23
2022-11-20T01:50:07.743Z,24.93
2022-11-20T01:52:43.428Z,25.07
2022-11-20T01:55:17.610Z,28.80
2022-11-20T01:57:48.056Z,27.27
2022-11-20T02:00:20.441Z,27.00
2022-11-20T02:02:54.272Z,25.47
2022-11-20T02:05:29.645Z,28.33
2022-11-20T02:08:00.212Z,23.40
2022-11-20T02:10:30.562Z,26.10
2022-11-20T02:13:16.991Z,25.80
2022-11-20T02:15:46.542Z,26.20
2022-11-20T02:18:18.667Z,26.03
2022-11-20T02:20:50.562Z,25.40
2022-11-20T02:23:28.576Z,29.27
2022-11-20T02:26:00.095Z,28.47
2022-11-20T02:28:29.417Z,25.20
2022-11-20T02:30:57.703Z,29.47
2022-11-20T02:33:26.203Z,26.13
2022-11-20T02:35:54.744Z,25.77
2022-11-20T02:38:23.655Z,29.70
2022-11-20T02:40:55.500Z,30.00
2022-11-20T02:43:26.086Z,27.23
2022-11-20T02:45:54.488Z,27.07
2022-11-20T02:48:25.107Z,23.17
2022-11-20T02:50:53.760Z,24.70
2022-11-20T02:53:22.128Z,25.03
2022-11-20T02:55:50.556Z,25.17
2022-11-20T02:58:19.045Z,28.13
2022-11-20T03:00:48.850Z,25.73
2022-11-20T03:03:17.231Z,23.53
2022-11-20T03:05:45.746Z,25.90
2022-11-20T03:08:14.196Z,26.70
2022-11-20T03:10:42.672Z,29.00
2022-11-20T03:13:11.042Z,27.87
2022-11-20T03:15:39.513Z,24.27
2022-11-20T03:18:09.210Z,26.80
2022-11-20T03:20:37.593Z,23.00
2022-11-20T03:23:06.336Z,26.50
2022-11-20T03:25:34.694Z,29.17
2022-11-20T03:28:03.058Z,27.03
2022-11-20T03:30:31.411Z,26.80
2022-11-20T03:32:59.896Z,25.03
2022-11-20T03:35:29.593Z,25.40
2022-11-20T03:37:57.953Z,25.60
2022-11-20T03:40:26.513Z,27.30
2022-11-20T03:42:54.833Z,28.13
2022-11-20T03:45:23.165Z,25.57
2022-11-20T03:47:51.660Z,27.77
2022-11-20T03:50:20.144Z,26.20
2022-11-20T03:52:49.921Z,26.40
2022-11-20T03:55:18.491Z,27.63
2022-11-20T03:57:46.822Z,23.43
2022-11-20T04:00:16.934Z,30.10
2022-11-20T04:02:45.308Z,27.40
2022-11-20T04:05:13.654Z,24.63
2022-11-20T04:07:42.141Z,26.20
2022-11-20T04:10:12.070Z,27.33
2022-11-20T04:12:40.456Z,32.63
2022-11-20T04:15:09.979Z,25.60
2022-11-20T04:17:38.398Z,26.33
2022-11-20T04:20:08.590Z,26.43
2022-11-20T04:22:36.965Z,29.20
2022-11-20T04:25:06.358Z,27.40
2022-11-20T04:27:36.169Z,27.23
2022-11-20T04:30:05.034Z,28.27
2022-11-20T04:32:33.350Z,25.60
2022-11-20T04:35:02.810Z,29.23
2022-11-20T04:37:31.171Z,29.73
2022-11-20T04:39:59.540Z,26.23
2022-11-20T04:42:30.550Z,25.07
2022-11-20T04:45:00.648Z,26.97
2022-11-20T04:47:29.093Z,25.40
2022-11-20T04:49:57.585Z,25.17
2022-11-20T04:52:26.202Z,26.40
2022-11-20T04:54:54.835Z,26.30
2022-11-20T04:57:23.339Z,23.03
2022-11-20T04:59:51.763Z,28.70
2022-11-20T05:02:22.170Z,27.17
2022-11-20T05:04:50.628Z,24.83
2022-11-20T05:07:19.241Z,29.43
2022-11-20T05:09:47.621Z,27.73
2022-11-20T05:12:16.055Z,26.30
2022-11-20T05:14:44.412Z,25.90
2022-11-20T05:17:13.510Z,26.57
2022-11-20T05:19:43.237Z,29.63
2022-11-20T05:22:11.638Z,32.40
2022-11-20T05:24:40.006Z,29.20
2022-11-20T05:27:08.342Z,33.13
2022-11-20T05:29:36.769Z,30.27
2022-11-20T05:32:06.788Z,30.70
2022-11-20T05:34:35.462Z,37.17
2022-11-20T05:37:05.483Z,32.80
2022-11-20T05:39:34.062Z,32.43
2022-11-20T05:42:19.792Z,34.80
2022-11-20T05:44:48.165Z,37.00
2022-11-20T05:47:16.540Z,36.63
2022-11-20T05:49:44.933Z,41.70
2022-11-20T05:52:14.689Z,40.17
2022-11-20T05:54:43.074Z,38.10
2022-11-20T05:57:11.466Z,31.83
2022-11-20T05:59:39.828Z,28.30
2022-11-20T06:02:08.154Z,31.57
2022-11-20T06:04:36.532Z,27.53
2022-11-20T06:07:04.981Z,32.00
2022-11-20T06:09:34.834Z,32.83
2022-11-20T06:12:03.320Z,35.90
2022-11-20T06:14:31.660Z,34.20
2022-11-20T06:17:00.282Z,35.30
2022-11-20T06:19:28.644Z,32.40
2022-11-20T06:21:56.952Z,37.33
2022-11-20T06:24:26.415Z,33.27
2022-11-20T06:26:56.170Z,35.70
2022-11-20T06:29:26.806Z,35.57
2022-11-20T06:32:01.109Z,32.07
2022-11-20T06:34:29.433Z,38.83
2022-11-20T06:36:57.874Z,35.67
2022-11-20T06:39:26.521Z,34.10
2022-11-20T06:41:59.107Z,37.07
2022-11-20T06:44:28.104Z,49.67
2022-11-20T06:46:56.577Z,35.77
2022-11-20T06:49:25.183Z,41.37
2022-11-20T06:51:53.745Z,39.27
2022-11-20T06:54:22.134Z,46.13
2022-11-20T06:56:50.854Z,47.03
2022-11-20T06:59:20.882Z,42.87
2022-11-20T07:01:49.579Z,40.77
2022-11-20T07:04:17.965Z,43.10
2022-11-20T07:06:46.360Z,37.30
2022-11-20T07:09:14.872Z,43.00
2022-11-20T07:11:43.412Z,40.57
2022-11-20T07:14:11.728Z,44.47
2022-11-20T07:16:41.513Z,44.43
2022-11-20T07:19:09.871Z,38.50
2022-11-20T07:21:38.344Z,41.03
2022-11-20T07:24:07.006Z,41.03
2022-11-20T07:26:35.439Z,42.73
2022-11-20T07:29:03.842Z,40.77
2022-11-20T07:31:32.434Z,42.97
2022-11-20T07:34:02.369Z,43.70
2022-11-20T07:36:30.743Z,44.07
2022-11-20T07:38:59.173Z,42.33
2022-11-20T07:41:28.638Z,44.57
2022-11-20T07:43:57.125Z,43.63
2022-11-20T07:46:25.753Z,40.23
2022-11-20T07:48:54.492Z,40.00
2022-11-20T07:51:24.518Z,42.70
2022-11-20T07:53:53.664Z,40.33
2022-11-20T07:56:22.401Z,39.60
2022-11-20T07:58:50.844Z,43.67
2022-11-20T08:01:19.417Z,41.20
2022-11-20T08:03:47.864Z,42.83
2022-11-20T08:06:16.696Z,40.20
2022-11-20T08:08:46.446Z,42.30
2022-11-20T08:11:32.583Z,36.93
2022-11-20T08:14:13.622Z,44.47
2022-11-20T08:16:42.252Z,41.10
2022-11-20T08:19:10.940Z,39.20
2022-11-20T08:21:39.473Z,47.30
2022-11-20T08:24:10.558Z,49.90
2022-11-20T08:26:40.416Z,40.10
2022-11-20T08:29:09.047Z,42.50
2022-11-20T08:31:37.992Z,41.77
2022-11-20T08:34:09.257Z,42.13
2022-11-20T08:36:38.751Z,43.47
2022-11-20T08:39:08.564Z,38.40
2022-11-20T08:41:37.865Z,49.30
2022-11-20T08:44:08.837Z,41.30
2022-11-20T08:46:40.305Z,46.87
2022-11-20T08:49:11.733Z,44.73
2022-11-20T08:51:40.856Z,44.57
2022-11-20T08:54:11.106Z,45.07
2022-11-20T08:56:39.586Z,46.20
2022-11-20T08:59:23.337Z,46.17
2022-11-20T09:01:56.484Z,40.40
2022-11-20T09:04:24.908Z,46.43
2022-11-20T09:06:53.465Z,45.07
2022-11-20T09:09:23.480Z,41.10
2022-11-20T09:11:52.260Z,43.30
2022-11-20T09:14:20.624Z,51.97
2022-11-20T09:16:49.062Z,42.77
2022-11-20T09:22:06.125Z,39.37
2022-11-20T09:24:35.906Z,39.57
2022-11-20T09:27:06.355Z,46.20
2022-11-20T09:29:34.902Z,42.20
2022-11-20T09:32:03.479Z,48.53
2022-11-20T09:34:32.018Z,41.60
2022-11-20T09:37:03.136Z,42.87
2022-11-20T09:39:39.904Z,44.73
2022-11-20T09:42:28.868Z,47.37
2022-11-20T09:45:18.441Z,47.40
2022-11-20T09:48:06.888Z,36.43
2022-11-20T09:50:39.264Z,37.00
2022-11-20T09:53:16.449Z,38.30
2022-11-20T09:55:48.301Z,41.13
2022-11-20T09:58:27.133Z,34.73
2022-11-20T10:00:57.638Z,35.40
2022-11-20T10:03:40.499Z,36.80
2022-11-20T10:06:14.365Z,33.97
2022-11-20T10:08:47.976Z,31.53
2022-11-20T10:11:27.311Z,33.30
2022-11-20T10:14:04.868Z,34.10
2022-11-20T10:16:43.079Z,32.63
2022-11-20T10:19:37.928Z,31.23
2022-11-20T10:22:15.929Z,30.50
2022-11-20T10:24:57.893Z,27.20
2022-11-20T10:27:59.083Z,30.43
2022-11-20T10:30:28.089Z,28.00
2022-11-20T10:33:03.584Z,26.27
2022-11-20T10:35:41.077Z,31.83
2022-11-20T10:38:17.274Z,32.90
2022-11-20T10:40:48.863Z,29.77
2022-11-20T10:43:28.061Z,25.50
2022-11-20T10:46:03.119Z,30.53
2022-11-20T10:48:34.387Z,32.10
2022-11-20T10:51:15.379Z,29.70
2022-11-20T10:54:00.213Z,31.13
2022-11-20T10:56:36.876Z,34.93
2022-11-20T10:59:40.964Z,31.63
2022-11-20T11:02:21.671Z,31.43
2022-11-20T11:04:52.579Z,29.40
2022-11-20T11:07:26.372Z,28.93
2022-11-20T11:09:57.489Z,35.80
2022-11-20T11:12:28.533Z,29.33
2022-11-20T11:14:59.808Z,31.00
2022-11-20T11:17:31.612Z,33.70
2022-11-20T11:20:16.444Z,30.83
2022-11-20T11:22:48.023Z,30.67
2022-11-20T11:25:30.368Z,33.67
2022-11-20T11:28:01.935Z,34.10
2022-11-20T11:30:43.544Z,35.43
2022-11-20T11:33:14.189Z,35.80
2022-11-20T11:35:51.269Z,31.70
2022-11-20T11:38:25.918Z,32.60
2022-11-20T11:40:57.462Z,36.00
2022-11-20T11:43:47.121Z,39.53
2022-11-20T11:46:33.397Z,36.30
2022-11-20T11:49:04.285Z,32.87
2022-11-20T11:51:40.346Z,38.03
2022-11-20T11:54:19.899Z,32.97
2022-11-20T11:56:48.790Z,35.90
2022-11-20T11:59:29.761Z,36.17
2022-11-20T12:02:06.269Z,38.20
2022-11-20T12:04:46.317Z,36.80
2022-11-20T12:07:45.355Z,39.13
2022-11-20T12:10:21.516Z,36.73
2022-11-20T12:12:58.588Z,42.00
2022-11-20T12:15:34.946Z,37.30
2022-11-20T12:18:10.839Z,35.63
2022-11-20T12:20:50.568Z,29.50
2022-11-20T12:23:26.654Z,30.27
2022-11-20T12:25:59.312Z,33.80
2022-11-20T12:28:51.186Z,30.13
2022-11-20T12:31:49.932Z,29.43
2022-11-20T12:34:46.874Z,26.40
2022-11-20T12:37:32.128Z,35.37
2022-11-20T12:40:18.005Z,33.67
2022-11-20T12:43:22.307Z,27.40
2022-11-20T12:46:11.171Z,26.10
2022-11-20T12:48:55.895Z,24.73
2022-11-20T12:51:46.341Z,30.37
2022-11-20T12:54:49.318Z,28.40
2022-11-20T12:57:26.114Z,27.87
2022-11-20T13:00:12.185Z,27.60
2022-11-20T13:03:08.963Z,24.87
2022-11-20T13:05:48.857Z,28.37
2022-11-20T13:08:25.268Z,28.57
2022-11-20T13:11:03.164Z,28.50
2022-11-20T13:13:44.031Z,34.00
2022-11-20T13:16:18.877Z,28.17
2022-11-20T13:18:47.634Z,28.20
2022-11-20T13:21:19.007Z,29.73
2022-11-20T13:23:49.280Z,31.10
2022-11-20T13:26:23.337Z,34.03
2022-11-20T13:29:07.739Z,31.07
2022-11-20T13:31:39.576Z,28.03
2022-11-20T13:34:09.706Z,31.90
2022-11-20T13:36:38.183Z,28.20
2022-11-20T13:39:07.968Z,29.63
2022-11-20T13:41:39.074Z,26.33
2022-11-20T13:44:16.229Z,27.80
2022-11-20T13:46:47.430Z,27.27
2022-11-20T13:49:28.736Z,28.10
2022-11-20T13:52:10.855Z,25.10
2022-11-20T13:55:00.792Z,26.90
2022-11-20T13:58:08.213Z,26.07
2022-11-20T14:00:47.260Z,25.97
2022-11-20T14:03:44.268Z,32.70
2022-11-20T14:06:20.894Z,27.17
2022-11-20T14:08:51.743Z,26.10
2022-11-20T14:11:25.305Z,30.43
2022-11-20T14:14:04.017Z,26.13
2022-11-20T14:16:36.873Z,22.40
2022-11-20T14:19:31.347Z,22.23
2022-11-20T14:22:17.180Z,24.83
2022-11-20T14:24:45.631Z,23.30
2022-11-20T14:27:19.940Z,23.73
2022-11-20T14:29:50.899Z,22.50
2022-11-20T14:32:23.073Z,22.63
2022-11-20T14:34:52.981Z,21.57
2022-11-20T14:37:26.850Z,23.50
2022-11-20T14:39:56.906Z,22.80
2022-11-20T14:42:28.978Z,26.77
2022-11-20T14:44:59.807Z,22.13
2022-11-20T14:47:31.463Z,24.60
2022-11-20T14:50:03.570Z,23.87
2022-11-20T14:52:35.774Z,23.13
2022-11-20T14:55:04.181Z,23.00
2022-11-20T14:57:36.206Z,24.00
2022-11-20T15:00:21.669Z,23.43
2022-11-20T15:02:52.262Z,33.17
2022-11-20T15:05:22.868Z,24.80
2022-11-20T15:07:54.879Z,24.03
2022-11-20T15:10:26.015Z,24.20
2022-11-20T15:12:58.354Z,22.67
2022-11-20T15:15:33.179Z,24.60
2022-11-20T15:18:02.064Z,25.93
2022-11-20T15:20:34.686Z,25.67
2022-11-20T15:23:03.037Z,23.97
2022-11-20T15:25:31.767Z,23.87
2022-11-20T15:28:01.571Z,24.53
2022-11-20T15:30:30.030Z,24.37
2022-11-20T15:32:58.430Z,25.17
2022-11-20T15:35:26.869Z,26.10
2022-11-20T15:37:56.535Z,23.70
2022-11-20T15:40:24.911Z,21.53
2022-11-20T15:43:12.551Z,26.30
2022-11-20T15:45:47.174Z,28.27
2022-11-20T15:48:20.046Z,24.87
2022-11-20T15:50:56.555Z,24.43
2022-11-20T15:53:25.287Z,23.90
2022-11-20T15:55:53.851Z,31.07
2022-11-20T15:58:24.112Z,28.80
2022-11-20T16:00:54.080Z,23.53
2022-11-20T16:03:22.747Z,27.10
2022-11-20T16:05:51.635Z,23.20
2022-11-20T16:08:20.247Z,22.53
2022-11-20T16:10:49.612Z,23.77
2022-11-20T16:13:37.668Z,21.97
2022-11-20T16:16:12.118Z,22.23
2022-11-20T16:18:40.541Z,21.70
2022-11-20T16:21:14.758Z,20.43
2022-11-20T16:23:43.951Z,18.73
2022-11-20T16:26:13.936Z,23.00
2022-11-20T16:28:42.797Z,30.97
2022-11-20T16:31:15.161Z,33.40
2022-11-20T16:33:44.167Z,30.67
2022-11-20T16:36:14.322Z,19.77
2022-11-20T16:38:43.057Z,23.60
2022-11-20T16:41:14.483Z,24.00
2022-11-20T16:43:51.404Z,25.23
2022-11-20T16:46:27.039Z,22.43
2022-11-20T16:48:57.279Z,24.93
2022-11-20T16:51:26.966Z,25.43
2022-11-20T16:53:56.222Z,22.90
2022-11-20T16:56:27.990Z,22.03
2022-11-20T16:58:59.118Z,24.10
2022-11-20T17:01:30.699Z,24.50
2022-11-20T17:04:01.918Z,21.40
2022-11-20T17:06:32.457Z,22.13
2022-11-20T17:09:01.287Z,22.20
2022-11-20T17:11:30.176Z,25.83
2022-11-20T17:14:01.063Z,22.87
2022-11-20T17:16:32.512Z,19.30
2022-11-20T17:19:03.544Z,24.73
2022-11-20T17:21:33.262Z,26.67
2022-11-20T17:24:03.459Z,26.70
2022-11-20T17:26:32.551Z,21.07
2022-11-20T17:29:03.503Z,24.53
2022-11-20T17:31:35.134Z,21.80
2022-11-20T17:34:04.457Z,22.27
2022-11-20T17:36:33.596Z,21.30
2022-11-20T17:39:02.345Z,22.97
2022-11-20T17:41:31.476Z,25.40
2022-11-20T17:44:02.230Z,26.07
2022-11-20T17:46:35.606Z,21.77
2022-11-20T17:49:05.939Z,21.60
2022-11-20T17:51:36.206Z,25.10
2022-11-20T17:54:08.383Z,22.93
2022-11-20T17:56:54.885Z,23.87
2022-11-20T17:59:23.632Z,24.50
2022-11-20T18:01:54.831Z,22.97
2022-11-20T18:04:25.347Z,24.93
2022-11-20T18:06:53.912Z,20.93
2022-11-20T18:09:22.282Z,25.00
2022-11-20T18:11:50.889Z,23.87
2022-11-20T18:14:32.639Z,25.77
2022-11-20T18:17:06.071Z,23.43
2022-11-20T18:19:41.227Z,24.33
2022-11-20T18:22:18.325Z,19.80
2022-11-20T18:24:47.123Z,21.70
2022-11-20T18:27:18.419Z,20.73
2022-11-20T18:29:51.794Z,22.63
2022-11-20T18:32:22.986Z,20.30
2022-11-20T18:34:52.398Z,24.67
2022-11-20T18:37:21.405Z,18.90
2022-11-20T18:39:50.881Z,17.30
2022-11-20T18:42:37.345Z,19.50
2022-11-20T18:45:06.703Z,18.67
2022-11-20T18:47:40.185Z,13.73
2022-11-20T18:50:10.332Z,13.50
2022-11-20T18:52:44.583Z,13.83
2022-11-20T18:55:13.486Z,10.10
2022-11-20T18:57:42.109Z,11.73
2022-11-20T19:00:12.918Z,8.80
2022-11-20T19:02:43.579Z,10.80
2022-11-20T19:05:16.121Z,9.23
2022-11-20T19:07:44.879Z,8.67
2022-11-20T19:10:13.606Z,9.53
2022-11-20T19:12:42.257Z,9.73
2022-11-20T19:15:11.799Z,6.10
2022-11-20T19:17:40.550Z,12.63
2022-11-20T19:20:11.790Z,7.63
2022-11-20T19:22:40.170Z,5.87
2022-11-20T19:25:09.672Z,4.70
2022-11-20T19:27:38.125Z,7.33
2022-11-20T19:30:07.890Z,5.67
2022-11-20T19:32:36.354Z,8.50
2022-11-20T19:35:05.428Z,7.17
2022-11-20T19:37:36.796Z,7.57
2022-11-20T19:40:05.809Z,3.77
2022-11-20T19:42:34.190Z,4.03
2022-11-20T19:45:02.565Z,7.30
2022-11-20T19:48:00.474Z,5.33
2022-11-20T19:50:19.440Z,5.80
2022-11-20T19:52:51.106Z,4.13
2022-11-20T19:55:22.744Z,11.20
2022-11-20T19:57:51.153Z,5.43
2022-11-20T20:00:27.940Z,4.80
2022-11-20T20:02:59.605Z,5.73
2022-11-20T20:05:28.166Z,4.87
2022-11-20T20:07:58.365Z,4.47
2022-11-20T20:10:26.851Z,6.80
2022-11-20T20:12:55.165Z,4.87
2022-11-20T20:15:23.868Z,3.93
2022-11-20T20:17:53.381Z,10.93
2022-11-20T20:20:22.615Z,8.30
2022-11-20T20:22:51.530Z,4.30
2022-11-20T20:25:21.576Z,5.27
2022-11-20T20:27:50.072Z,7.70
2022-11-20T20:30:18.845Z,4.00
2022-11-20T20:32:50.752Z,5.77
2022-11-20T20:35:21.897Z,6.37
2022-11-20T20:37:50.541Z,4.90
2022-11-20T20:40:20.544Z,4.10
2022-11-20T20:42:49.184Z,4.60
2022-11-20T20:45:18.025Z,5.40
2022-11-20T20:47:46.765Z,4.03
2022-11-20T20:50:15.400Z,3.93
2022-11-20T20:52:43.978Z,6.20
2022-11-20T20:55:12.967Z,2.93
2022-11-20T20:57:42.875Z,3.37
2022-11-20T21:00:11.979Z,2.60
2022-11-20T21:02:40.497Z,3.00
2022-11-20T21:05:10.126Z,2.13
2022-11-20T21:07:59.351Z,2.63
2022-11-20T21:10:28.340Z,3.23
2022-11-20T21:12:58.395Z,2.33
2022-11-20T21:15:26.939Z,3.40
2022-11-20T21:17:55.503Z,2.43
2022-11-20T21:20:41.665Z,3.10
2022-11-20T21:23:11.347Z,4.03
2022-11-20T21:25:40.617Z,2.20
2022-11-20T21:28:16.828Z,2.30
2022-11-20T21:30:47.102Z,1.90
2022-11-20T21:33:16.153Z,2.00
2022-11-20T21:35:44.719Z,2.37
2022-11-20T21:38:13.252Z,2.33
2022-11-20T21:40:41.845Z,2.70
2022-11-20T21:43:11.927Z,2.00
2022-11-20T21:45:40.410Z,2.37
2022-11-20T21:48:08.987Z,2.13
2022-11-20T21:50:37.514Z,2.97
2022-11-20T21:53:06.018Z,1.80
2022-11-20T21:55:34.414Z,1.80
2022-11-20T21:58:03.064Z,1.40
2022-11-20T22:00:33.088Z,4.30
2022-11-20T22:03:01.678Z,2.40
2022-11-20T22:05:30.472Z,1.77
2022-11-20T22:07:58.984Z,2.63
2022-11-20T22:10:28.032Z,3.50
2022-11-20T22:13:17.193Z,2.20
2022-11-20T22:16:00.337Z,1.80
2022-11-20T22:18:29.459Z,1.87
2022-11-20T22:20:57.929Z,1.23
2022-11-20T22:23:26.685Z,1.70
2022-11-20T22:25:55.471Z,1.87
2022-11-20T22:28:24.067Z,2.07
2022-11-20T22:30:53.963Z,1.90
2022-11-20T22:33:22.442Z,3.67
2022-11-20T22:35:51.169Z,1.80
2022-11-20T22:38:19.587Z,2.07
2022-11-20T22:40:48.608Z,2.20
2022-11-20T22:43:17.033Z,2.17
2022-11-20T22:45:46.515Z,1.43
2022-11-20T22:48:16.375Z,3.03
2022-11-20T22:50:45.275Z,2.23
2022-11-20T22:53:13.746Z,3.83
2022-11-20T22:55:42.132Z,6.63
2022-11-20T22:58:10.555Z,3.23
2022-11-20T23:00:38.940Z,1.93
2022-11-20T23:03:07.407Z,1.90
2022-11-20T23:05:37.182Z,1.60
2022-11-20T23:08:06.133Z,5.53
2022-11-20T23:10:34.582Z,2.53
2022-11-20T23:13:03.049Z,2.30
2022-11-20T23:15:31.450Z,2.20
2022-11-20T23:17:59.897Z,2.53
2022-11-20T23:20:28.284Z,5.10
2022-11-20T23:22:58.132Z,2.70
2022-11-20T23:25:26.485Z,2.73
2022-11-20T23:27:55.278Z,5.80
2022-11-20T23:30:23.888Z,5.20
2022-11-20T23:32:52.314Z,3.60
2022-11-20T23:35:20.677Z,3.87
2022-11-20T23:37:49.050Z,2.53
2022-11-20T23:40:19.009Z,2.40
2022-11-20T23:43:01.459Z,3.10
2022-11-20T23:45:29.969Z,4.00
2022-11-20T23:47:58.386Z,2.03
2022-11-20T23:50:26.847Z,3.43
2022-11-20T23:52:55.293Z,3.37
2022-11-20T23:55:25.121Z,6.17
2022-11-20T23:57:53.630Z,2.90
